sensor_id;sensor_type;location;lat;lon;timestamp;P1;durP1;ratioP1;P2;durP2;ratioP2
287;SDS011;128;48.770;9.198;2023-06-04T00:00:27;13.60;;;7.00;;
287;SDS011;128;48.770;9.198;2023-06-04T00:02:53;17.57;;;7.50;;
287;SDS011;128;48.770;9.198;2023-06-04T00:05:19;9.87;;;6.57;;
287;SDS011;128;48.770;9.198;2023-06-04T00:07:47;18.27;;;7.80;;
287;SDS011;128;48.770;9.198;2023-06-04T00:10:13;13.03;;;7.70;;
287;SDS011;128;48.770;9.198;2023-06-04T00:12:39;16.27;;;7.70;;
287;SDS011;128;48.770;9.198;2023-06-04T00:15:05;14.90;;;7.43;;
287;SDS011;128;48.770;9.198;2023-06-04T00:17:31;12.70;;;7.13;;
287;SDS011;128;48.770;9.198;2023-06-04T00:19:57;14.53;;;7.67;;
287;SDS011;128;48.770;9.198;2023-06-04T00:22:23;10.80;;;5.87;;
287;SDS011;128;48.770;9.198;2023-06-04T00:24:49;17.83;;;7.20;;
287;SDS011;128;48.770;9.198;2023-06-04T00:27:15;9.73;;;6.30;;
287;SDS011;128;48.770;9.198;2023-06-04T00:29:41;9.60;;;6.37;;
287;SDS011;128;48.770;9.198;2023-06-04T00:32:07;14.33;;;6.17;;
287;SDS011;128;48.770;9.198;2023-06-04T00:34:33;13.50;;;7.43;;
287;SDS011;128;48.770;9.198;2023-06-04T00:36:59;12.83;;;5.80;;
287;SDS011;128;48.770;9.198;2023-06-04T00:39:26;8.57;;;6.27;;
287;SDS011;128;48.770;9.198;2023-06-04T00:41:52;14.37;;;7.13;;
287;SDS011;128;48.770;9.198;2023-06-04T00:44:18;10.57;;;6.17;;
287;SDS011;128;48.770;9.198;2023-06-04T00:46:46;11.83;;;6.43;;
287;SDS011;128;48.770;9.198;2023-06-04T00:49:14;12.10;;;7.37;;
287;SDS011;128;48.770;9.198;2023-06-04T00:51:40;15.23;;;6.63;;
287;SDS011;128;48.770;9.198;2023-06-04T00:54:07;12.70;;;6.60;;
287;SDS011;128;48.770;9.198;2023-06-04T00:56:36;11.77;;;6.53;;
287;SDS011;128;48.770;9.198;2023-06-04T00:59:04;13.70;;;7.20;;
287;SDS011;128;48.770;9.198;2023-06-04T01:04:33;12.07;;;6.17;;
287;SDS011;128;48.770;9.198;2023-06-04T01:07:00;12.20;;;6.43;;
287;SDS011;128;48.770;9.198;2023-06-04T01:09:28;9.90;;;6.37;;
287;SDS011;128;48.770;9.198;2023-06-04T01:11:55;15.50;;;8.10;;
287;SDS011;128;48.770;9.198;2023-06-04T01:14:23;10.63;;;6.43;;
287;SDS011;128;48.770;9.198;2023-06-04T01:21:55;17.03;;;7.40;;
287;SDS011;128;48.770;9.198;2023-06-04T01:24:25;17.43;;;7.47;;
287;SDS011;128;48.770;9.198;2023-06-04T01:26:53;15.50;;;6.23;;
287;SDS011;128;48.770;9.198;2023-06-04T01:29:20;13.37;;;7.80;;
287;SDS011;128;48.770;9.198;2023-06-04T01:31:48;13.40;;;7.30;;
287;SDS011;128;48.770;9.198;2023-06-04T01:34:14;12.77;;;7.67;;
287;SDS011;128;48.770;9.198;2023-06-04T01:36:40;12.80;;;7.00;;
287;SDS011;128;48.770;9.198;2023-06-04T01:39:06;9.83;;;6.20;;
287;SDS011;128;48.770;9.198;2023-06-04T01:41:32;11.57;;;6.90;;
287;SDS011;128;48.770;9.198;2023-06-04T01:43:58;11.27;;;6.23;;
287;SDS011;128;48.770;9.198;2023-06-04T01:46:24;13.70;;;7.73;;
287;SDS011;128;48.770;9.198;2023-06-04T01:48:50;10.87;;;6.63;;
287;SDS011;128;48.770;9.198;2023-06-04T01:51:16;11.60;;;5.80;;
287;SDS011;128;48.770;9.198;2023-06-04T01:53:42;14.80;;;6.10;;
287;SDS011;128;48.770;9.198;2023-06-04T01:56:08;9.57;;;5.40;;
287;SDS011;128;48.770;9.198;2023-06-04T01:58:34;12.93;;;6.13;;
287;SDS011;128;48.770;9.198;2023-06-04T02:01:00;12.10;;;7.03;;
287;SDS011;128;48.770;9.198;2023-06-04T02:03:28;19.97;;;6.40;;
287;SDS011;128;48.770;9.198;2023-06-04T02:06:00;14.60;;;5.53;;
287;SDS011;128;48.770;9.198;2023-06-04T02:08:26;7.23;;;4.93;;
287;SDS011;128;48.770;9.198;2023-06-04T02:10:55;9.87;;;5.57;;
287;SDS011;128;48.770;9.198;2023-06-04T02:13:21;8.33;;;4.97;;
287;SDS011;128;48.770;9.198;2023-06-04T02:15:47;8.43;;;5.27;;
287;SDS011;128;48.770;9.198;2023-06-04T02:18:17;7.97;;;5.23;;
287;SDS011;128;48.770;9.198;2023-06-04T02:20:43;7.73;;;4.60;;
287;SDS011;128;48.770;9.198;2023-06-04T02:23:10;7.43;;;4.00;;
287;SDS011;128;48.770;9.198;2023-06-04T02:25:36;13.03;;;4.40;;
287;SDS011;128;48.770;9.198;2023-06-04T02:28:02;10.40;;;4.10;;
287;SDS011;128;48.770;9.198;2023-06-04T02:30:28;8.10;;;4.70;;
287;SDS011;128;48.770;9.198;2023-06-04T02:32:53;7.80;;;4.57;;
287;SDS011;128;48.770;9.198;2023-06-04T02:35:20;9.23;;;5.33;;
287;SDS011;128;48.770;9.198;2023-06-04T02:37:47;10.13;;;5.17;;
287;SDS011;128;48.770;9.198;2023-06-04T02:40:13;10.70;;;5.03;;
287;SDS011;128;48.770;9.198;2023-06-04T02:42:39;9.13;;;5.13;;
287;SDS011;128;48.770;9.198;2023-06-04T02:45:06;13.50;;;4.80;;
287;SDS011;128;48.770;9.198;2023-06-04T02:47:32;10.77;;;5.00;;
287;SDS011;128;48.770;9.198;2023-06-04T02:49:58;9.23;;;5.10;;
287;SDS011;128;48.770;9.198;2023-06-04T02:52:23;10.43;;;5.53;;
287;SDS011;128;48.770;9.198;2023-06-04T02:54:50;10.53;;;5.30;;
287;SDS011;128;48.770;9.198;2023-06-04T02:57:16;12.23;;;6.30;;
287;SDS011;128;48.770;9.198;2023-06-04T02:59:42;9.17;;;5.77;;
287;SDS011;128;48.770;9.198;2023-06-04T03:02:08;10.50;;;5.80;;
287;SDS011;128;48.770;9.198;2023-06-04T03:04:35;12.13;;;5.83;;
287;SDS011;128;48.770;9.198;2023-06-04T03:07:01;10.10;;;6.80;;
287;SDS011;128;48.770;9.198;2023-06-04T03:09:27;9.67;;;5.57;;
287;SDS011;128;48.770;9.198;2023-06-04T03:11:54;14.70;;;6.17;;
287;SDS011;128;48.770;9.198;2023-06-04T03:14:20;11.93;;;5.33;;
287;SDS011;128;48.770;9.198;2023-06-04T03:16:46;7.70;;;4.80;;
287;SDS011;128;48.770;9.198;2023-06-04T03:19:12;10.40;;;6.00;;
287;SDS011;128;48.770;9.198;2023-06-04T03:21:38;17.33;;;5.87;;
287;SDS011;128;48.770;9.198;2023-06-04T03:24:05;7.23;;;4.80;;
287;SDS011;128;48.770;9.198;2023-06-04T03:26:31;20.83;;;6.00;;
287;SDS011;128;48.770;9.198;2023-06-04T03:28:57;10.53;;;5.20;;
287;SDS011;128;48.770;9.198;2023-06-04T03:31:23;9.30;;;5.13;;
287;SDS011;128;48.770;9.198;2023-06-04T03:33:50;8.20;;;5.40;;
287;SDS011;128;48.770;9.198;2023-06-04T03:36:16;8.97;;;5.37;;
287;SDS011;128;48.770;9.198;2023-06-04T03:38:42;13.30;;;5.43;;
287;SDS011;128;48.770;9.198;2023-06-04T03:41:10;11.17;;;5.37;;
287;SDS011;128;48.770;9.198;2023-06-04T03:43:36;7.57;;;4.43;;
287;SDS011;128;48.770;9.198;2023-06-04T03:46:02;10.90;;;5.73;;
287;SDS011;128;48.770;9.198;2023-06-04T03:48:28;9.23;;;4.83;;
287;SDS011;128;48.770;9.198;2023-06-04T03:50:54;10.03;;;4.93;;
287;SDS011;128;48.770;9.198;2023-06-04T03:53:20;10.13;;;4.93;;
287;SDS011;128;48.770;9.198;2023-06-04T03:55:46;9.30;;;4.27;;
287;SDS011;128;48.770;9.198;2023-06-04T03:58:12;11.93;;;4.93;;
287;SDS011;128;48.770;9.198;2023-06-04T04:00:39;10.33;;;5.40;;
287;SDS011;128;48.770;9.198;2023-06-04T04:03:05;9.63;;;4.70;;
287;SDS011;128;48.770;9.198;2023-06-04T04:05:33;11.47;;;5.03;;
287;SDS011;128;48.770;9.198;2023-06-04T04:08:00;9.83;;;5.17;;
287;SDS011;128;48.770;9.198;2023-06-04T04:10:26;12.50;;;4.10;;
287;SDS011;128;48.770;9.198;2023-06-04T04:12:52;8.50;;;4.50;;
287;SDS011;128;48.770;9.198;2023-06-04T04:15:19;7.87;;;3.97;;
287;SDS011;128;48.770;9.198;2023-06-04T04:17:45;9.20;;;4.23;;
287;SDS011;128;48.770;9.198;2023-06-04T04:20:11;7.60;;;3.80;;
287;SDS011;128;48.770;9.198;2023-06-04T04:22:40;10.53;;;4.30;;
287;SDS011;128;48.770;9.198;2023-06-04T04:25:07;11.33;;;4.33;;
287;SDS011;128;48.770;9.198;2023-06-04T04:27:33;8.03;;;3.93;;
287;SDS011;128;48.770;9.198;2023-06-04T04:30:03;8.30;;;3.90;;
287;SDS011;128;48.770;9.198;2023-06-04T04:32:29;5.97;;;4.07;;
287;SDS011;128;48.770;9.198;2023-06-04T04:34:56;9.00;;;4.17;;
287;SDS011;128;48.770;9.198;2023-06-04T04:37:23;10.13;;;3.80;;
287;SDS011;128;48.770;9.198;2023-06-04T04:39:49;9.80;;;3.70;;
287;SDS011;128;48.770;9.198;2023-06-04T04:42:16;6.70;;;3.90;;
287;SDS011;128;48.770;9.198;2023-06-04T04:44:42;10.73;;;4.00;;
287;SDS011;128;48.770;9.198;2023-06-04T04:47:12;7.30;;;3.83;;
287;SDS011;128;48.770;9.198;2023-06-04T04:49:38;4.50;;;3.03;;
287;SDS011;128;48.770;9.198;2023-06-04T04:52:04;7.73;;;4.00;;
287;SDS011;128;48.770;9.198;2023-06-04T04:54:29;5.53;;;3.40;;
287;SDS011;128;48.770;9.198;2023-06-04T04:56:55;9.33;;;4.90;;
287;SDS011;128;48.770;9.198;2023-06-04T04:59:21;8.10;;;3.80;;
287;SDS011;128;48.770;9.198;2023-06-04T05:01:47;6.87;;;3.50;;
287;SDS011;128;48.770;9.198;2023-06-04T05:04:13;7.27;;;3.33;;
287;SDS011;128;48.770;9.198;2023-06-04T05:06:39;6.27;;;3.60;;
287;SDS011;128;48.770;9.198;2023-06-04T05:09:05;11.93;;;3.93;;
287;SDS011;128;48.770;9.198;2023-06-04T05:11:32;8.30;;;3.00;;
287;SDS011;128;48.770;9.198;2023-06-04T05:13:58;12.10;;;3.20;;
287;SDS011;128;48.770;9.198;2023-06-04T05:16:24;5.03;;;3.00;;
287;SDS011;128;48.770;9.198;2023-06-04T05:18:52;6.10;;;3.27;;
287;SDS011;128;48.770;9.198;2023-06-04T05:21:21;6.10;;;3.17;;
287;SDS011;128;48.770;9.198;2023-06-04T05:23:47;4.97;;;2.97;;
287;SDS011;128;48.770;9.198;2023-06-04T05:26:13;6.17;;;3.57;;
287;SDS011;128;48.770;9.198;2023-06-04T05:28:40;7.03;;;4.40;;
287;SDS011;128;48.770;9.198;2023-06-04T05:31:08;6.13;;;2.97;;
287;SDS011;128;48.770;9.198;2023-06-04T05:33:35;7.47;;;2.97;;
287;SDS011;128;48.770;9.198;2023-06-04T05:36:01;8.50;;;4.20;;
287;SDS011;128;48.770;9.198;2023-06-04T05:38:27;7.07;;;3.23;;
287;SDS011;128;48.770;9.198;2023-06-04T05:40:55;5.13;;;3.00;;
287;SDS011;128;48.770;9.198;2023-06-04T05:43:22;8.30;;;3.37;;
287;SDS011;128;48.770;9.198;2023-06-04T05:45:48;5.47;;;2.93;;
287;SDS011;128;48.770;9.198;2023-06-04T05:48:14;6.20;;;3.27;;
287;SDS011;128;48.770;9.198;2023-06-04T05:50:40;8.47;;;3.00;;
287;SDS011;128;48.770;9.198;2023-06-04T05:53:06;5.00;;;3.20;;
287;SDS011;128;48.770;9.198;2023-06-04T05:55:32;8.93;;;3.30;;
287;SDS011;128;48.770;9.198;2023-06-04T05:57:58;13.33;;;3.37;;
287;SDS011;128;48.770;9.198;2023-06-04T06:00:24;3.80;;;2.63;;
287;SDS011;128;48.770;9.198;2023-06-04T06:02:50;10.93;;;2.97;;
287;SDS011;128;48.770;9.198;2023-06-04T06:05:17;14.23;;;2.87;;
287;SDS011;128;48.770;9.198;2023-06-04T06:07:44;5.10;;;2.77;;
287;SDS011;128;48.770;9.198;2023-06-04T06:10:10;6.30;;;2.80;;
287;SDS011;128;48.770;9.198;2023-06-04T06:12:36;6.13;;;2.90;;
287;SDS011;128;48.770;9.198;2023-06-04T06:15:02;4.90;;;2.90;;
287;SDS011;128;48.770;9.198;2023-06-04T06:17:28;4.20;;;2.70;;
287;SDS011;128;48.770;9.198;2023-06-04T06:19:54;9.03;;;2.20;;
287;SDS011;128;48.770;9.198;2023-06-04T06:22:20;5.90;;;2.70;;
287;SDS011;128;48.770;9.198;2023-06-04T06:24:46;5.37;;;2.47;;
287;SDS011;128;48.770;9.198;2023-06-04T06:27:16;3.50;;;2.40;;
287;SDS011;128;48.770;9.198;2023-06-04T06:29:42;6.27;;;2.30;;
287;SDS011;128;48.770;9.198;2023-06-04T06:32:08;4.23;;;2.50;;
287;SDS011;128;48.770;9.198;2023-06-04T06:34:34;6.23;;;2.47;;
287;SDS011;128;48.770;9.198;2023-06-04T06:37:00;6.40;;;2.43;;
287;SDS011;128;48.770;9.198;2023-06-04T06:39:26;3.40;;;2.17;;
287;SDS011;128;48.770;9.198;2023-06-04T06:41:52;3.23;;;2.27;;
287;SDS011;128;48.770;9.198;2023-06-04T06:44:18;3.37;;;2.33;;
287;SDS011;128;48.770;9.198;2023-06-04T06:46:44;12.00;;;2.30;;
287;SDS011;128;48.770;9.198;2023-06-04T06:49:10;5.33;;;2.80;;
287;SDS011;128;48.770;9.198;2023-06-04T06:51:36;7.17;;;2.70;;
287;SDS011;128;48.770;9.198;2023-06-04T06:54:01;7.50;;;2.67;;
287;SDS011;128;48.770;9.198;2023-06-04T06:56:27;5.17;;;2.87;;
287;SDS011;128;48.770;9.198;2023-06-04T06:58:53;5.83;;;2.57;;
287;SDS011;128;48.770;9.198;2023-06-04T07:01:19;7.07;;;2.73;;
287;SDS011;128;48.770;9.198;2023-06-04T07:03:46;7.70;;;2.90;;
287;SDS011;128;48.770;9.198;2023-06-04T07:06:11;4.33;;;2.73;;
287;SDS011;128;48.770;9.198;2023-06-04T07:08:38;5.70;;;2.67;;
287;SDS011;128;48.770;9.198;2023-06-04T07:11:04;4.97;;;2.70;;
287;SDS011;128;48.770;9.198;2023-06-04T07:13:30;7.70;;;2.40;;
287;SDS011;128;48.770;9.198;2023-06-04T07:16:00;5.50;;;2.93;;
287;SDS011;128;48.770;9.198;2023-06-04T07:18:26;4.67;;;2.23;;
287;SDS011;128;48.770;9.198;2023-06-04T07:20:52;4.73;;;3.30;;
287;SDS011;128;48.770;9.198;2023-06-04T07:23:18;4.60;;;3.30;;
287;SDS011;128;48.770;9.198;2023-06-04T07:25:44;14.00;;;2.97;;
287;SDS011;128;48.770;9.198;2023-06-04T07:28:10;5.07;;;2.40;;
287;SDS011;128;48.770;9.198;2023-06-04T07:30:36;5.33;;;2.50;;
287;SDS011;128;48.770;9.198;2023-06-04T07:33:03;7.33;;;2.00;;
287;SDS011;128;48.770;9.198;2023-06-04T07:35:29;7.03;;;2.10;;
287;SDS011;128;48.770;9.198;2023-06-04T07:37:55;5.70;;;2.77;;
287;SDS011;128;48.770;9.198;2023-06-04T07:40:21;6.63;;;2.93;;
287;SDS011;128;48.770;9.198;2023-06-04T07:42:47;6.03;;;2.50;;
287;SDS011;128;48.770;9.198;2023-06-04T07:45:13;5.77;;;2.43;;
287;SDS011;128;48.770;9.198;2023-06-04T07:47:39;7.67;;;3.10;;
287;SDS011;128;48.770;9.198;2023-06-04T07:50:05;5.70;;;2.60;;
287;SDS011;128;48.770;9.198;2023-06-04T07:52:31;5.07;;;2.53;;
287;SDS011;128;48.770;9.198;2023-06-04T07:54:57;5.83;;;2.97;;
287;SDS011;128;48.770;9.198;2023-06-04T07:57:23;3.47;;;2.50;;
287;SDS011;128;48.770;9.198;2023-06-04T07:59:49;4.53;;;2.40;;
287;SDS011;128;48.770;9.198;2023-06-04T08:02:16;5.47;;;1.90;;
287;SDS011;128;48.770;9.198;2023-06-04T08:04:42;4.20;;;3.00;;
287;SDS011;128;48.770;9.198;2023-06-04T08:07:08;6.33;;;2.73;;
287;SDS011;128;48.770;9.198;2023-06-04T08:09:34;6.27;;;2.80;;
287;SDS011;128;48.770;9.198;2023-06-04T08:12:00;4.87;;;2.60;;
287;SDS011;128;48.770;9.198;2023-06-04T08:14:26;7.93;;;2.70;;
287;SDS011;128;48.770;9.198;2023-06-04T08:16:55;4.87;;;2.80;;
287;SDS011;128;48.770;9.198;2023-06-04T08:19:21;6.77;;;3.20;;
287;SDS011;128;48.770;9.198;2023-06-04T08:21:48;9.13;;;2.50;;
287;SDS011;128;48.770;9.198;2023-06-04T08:24:14;4.40;;;2.33;;
287;SDS011;128;48.770;9.198;2023-06-04T08:26:40;5.17;;;2.83;;
287;SDS011;128;48.770;9.198;2023-06-04T08:29:06;12.13;;;3.17;;
287;SDS011;128;48.770;9.198;2023-06-04T08:31:33;4.20;;;2.60;;
287;SDS011;128;48.770;9.198;2023-06-04T08:33:59;11.17;;;3.03;;
287;SDS011;128;48.770;9.198;2023-06-04T08:36:26;5.13;;;2.40;;
287;SDS011;128;48.770;9.198;2023-06-04T08:38:52;4.77;;;2.80;;
287;SDS011;128;48.770;9.198;2023-06-04T08:43:44;11.50;;;2.47;;
287;SDS011;128;48.770;9.198;2023-06-04T08:46:10;5.40;;;3.00;;
287;SDS011;128;48.770;9.198;2023-06-04T08:48:37;5.10;;;3.03;;
287;SDS011;128;48.770;9.198;2023-06-04T08:51:05;5.20;;;3.23;;
287;SDS011;128;48.770;9.198;2023-06-04T08:53:34;8.70;;;2.70;;
287;SDS011;128;48.770;9.198;2023-06-04T08:56:00;7.53;;;3.37;;
287;SDS011;128;48.770;9.198;2023-06-04T08:58:27;6.60;;;2.67;;
287;SDS011;128;48.770;9.198;2023-06-04T09:00:56;8.57;;;2.93;;
287;SDS011;128;48.770;9.198;2023-06-04T09:03:22;8.13;;;2.57;;
287;SDS011;128;48.770;9.198;2023-06-04T09:05:49;9.80;;;3.77;;
287;SDS011;128;48.770;9.198;2023-06-04T09:08:16;7.50;;;3.07;;
287;SDS011;128;48.770;9.198;2023-06-04T09:10:44;14.40;;;3.00;;
287;SDS011;128;48.770;9.198;2023-06-04T09:13:11;7.20;;;2.73;;
287;SDS011;128;48.770;9.198;2023-06-04T09:15:38;3.53;;;2.33;;
287;SDS011;128;48.770;9.198;2023-06-04T09:18:04;13.40;;;3.27;;
287;SDS011;128;48.770;9.198;2023-06-04T09:20:30;8.60;;;2.90;;
287;SDS011;128;48.770;9.198;2023-06-04T09:22:57;6.93;;;2.90;;
287;SDS011;128;48.770;9.198;2023-06-04T09:25:26;3.60;;;2.30;;
287;SDS011;128;48.770;9.198;2023-06-04T09:27:53;6.43;;;3.00;;
287;SDS011;128;48.770;9.198;2023-06-04T09:30:23;4.60;;;3.03;;
287;SDS011;128;48.770;9.198;2023-06-04T09:32:49;7.30;;;2.90;;
287;SDS011;128;48.770;9.198;2023-06-04T09:35:18;5.83;;;3.13;;
287;SDS011;128;48.770;9.198;2023-06-04T09:37:51;5.83;;;2.50;;
287;SDS011;128;48.770;9.198;2023-06-04T09:40:17;12.23;;;3.37;;
287;SDS011;128;48.770;9.198;2023-06-04T09:42:44;7.43;;;3.37;;
287;SDS011;128;48.770;9.198;2023-06-04T09:45:10;6.10;;;3.43;;
287;SDS011;128;48.770;9.198;2023-06-04T09:47:42;4.80;;;2.80;;
287;SDS011;128;48.770;9.198;2023-06-04T09:50:11;7.70;;;3.30;;
287;SDS011;128;48.770;9.198;2023-06-04T09:52:37;9.60;;;4.03;;
287;SDS011;128;48.770;9.198;2023-06-04T09:55:14;6.37;;;3.50;;
287;SDS011;128;48.770;9.198;2023-06-04T09:57:44;5.37;;;3.10;;
287;SDS011;128;48.770;9.198;2023-06-04T10:00:10;6.87;;;3.47;;
287;SDS011;128;48.770;9.198;2023-06-04T10:02:37;6.30;;;3.40;;
287;SDS011;128;48.770;9.198;2023-06-04T10:05:03;6.67;;;3.13;;
287;SDS011;128;48.770;9.198;2023-06-04T10:07:33;5.87;;;3.50;;
287;SDS011;128;48.770;9.198;2023-06-04T10:10:02;12.57;;;3.03;;
287;SDS011;128;48.770;9.198;2023-06-04T10:12:29;11.10;;;3.80;;
287;SDS011;128;48.770;9.198;2023-06-04T10:14:56;6.90;;;3.70;;
287;SDS011;128;48.770;9.198;2023-06-04T10:17:23;8.80;;;3.77;;
287;SDS011;128;48.770;9.198;2023-06-04T10:19:50;8.63;;;3.67;;
287;SDS011;128;48.770;9.198;2023-06-04T10:22:19;6.43;;;4.10;;
287;SDS011;128;48.770;9.198;2023-06-04T10:24:45;15.73;;;3.57;;
287;SDS011;128;48.770;9.198;2023-06-04T10:27:12;6.23;;;3.57;;
287;SDS011;128;48.770;9.198;2023-06-04T10:29:38;4.13;;;2.80;;
287;SDS011;128;48.770;9.198;2023-06-04T10:32:04;6.40;;;3.77;;
287;SDS011;128;48.770;9.198;2023-06-04T10:34:30;6.20;;;3.70;;
287;SDS011;128;48.770;9.198;2023-06-04T10:36:57;12.00;;;3.23;;
287;SDS011;128;48.770;9.198;2023-06-04T10:39:26;7.17;;;3.30;;
287;SDS011;128;48.770;9.198;2023-06-04T10:44:25;6.43;;;3.10;;
287;SDS011;128;48.770;9.198;2023-06-04T10:46:51;19.10;;;4.70;;
287;SDS011;128;48.770;9.198;2023-06-04T10:49:25;10.93;;;3.47;;
287;SDS011;128;48.770;9.198;2023-06-04T10:51:51;6.00;;;3.13;;
287;SDS011;128;48.770;9.198;2023-06-04T10:54:24;8.87;;;3.90;;
287;SDS011;128;48.770;9.198;2023-06-04T10:56:50;7.07;;;3.57;;
287;SDS011;128;48.770;9.198;2023-06-04T10:59:17;8.80;;;3.70;;
287;SDS011;128;48.770;9.198;2023-06-04T11:01:43;6.17;;;3.33;;
287;SDS011;128;48.770;9.198;2023-06-04T11:06:45;7.53;;;3.30;;
287;SDS011;128;48.770;9.198;2023-06-04T11:09:13;11.73;;;3.90;;
287;SDS011;128;48.770;9.198;2023-06-04T11:11:43;8.17;;;3.83;;
287;SDS011;128;48.770;9.198;2023-06-04T11:14:10;9.93;;;3.80;;
287;SDS011;128;48.770;9.198;2023-06-04T11:16:40;8.13;;;3.50;;
287;SDS011;128;48.770;9.198;2023-06-04T11:19:06;5.83;;;3.20;;
287;SDS011;128;48.770;9.198;2023-06-04T11:21:35;9.57;;;3.30;;
287;SDS011;128;48.770;9.198;2023-06-04T11:24:02;8.70;;;3.80;;
287;SDS011;128;48.770;9.198;2023-06-04T11:26:29;9.70;;;3.43;;
287;SDS011;128;48.770;9.198;2023-06-04T11:28:56;8.53;;;4.53;;
287;SDS011;128;48.770;9.198;2023-06-04T11:31:22;6.73;;;3.10;;
287;SDS011;128;48.770;9.198;2023-06-04T11:33:48;8.10;;;3.63;;
287;SDS011;128;48.770;9.198;2023-06-04T11:36:23;4.60;;;3.03;;
287;SDS011;128;48.770;9.198;2023-06-04T11:38:56;7.40;;;3.40;;
287;SDS011;128;48.770;9.198;2023-06-04T11:41:23;9.33;;;3.93;;
287;SDS011;128;48.770;9.198;2023-06-04T11:43:49;10.20;;;4.40;;
287;SDS011;128;48.770;9.198;2023-06-04T11:46:15;7.33;;;3.60;;
287;SDS011;128;48.770;9.198;2023-06-04T11:48:41;5.07;;;3.60;;
287;SDS011;128;48.770;9.198;2023-06-04T11:51:08;9.40;;;4.63;;
287;SDS011;128;48.770;9.198;2023-06-04T11:53:36;11.90;;;4.20;;
287;SDS011;128;48.770;9.198;2023-06-04T11:56:02;8.60;;;4.00;;
287;SDS011;128;48.770;9.198;2023-06-04T11:58:28;8.03;;;4.00;;
287;SDS011;128;48.770;9.198;2023-06-04T12:00:55;9.77;;;3.43;;
287;SDS011;128;48.770;9.198;2023-06-04T12:03:31;9.33;;;3.93;;
287;SDS011;128;48.770;9.198;2023-06-04T12:05:57;9.23;;;3.20;;
287;SDS011;128;48.770;9.198;2023-06-04T12:08:22;7.40;;;2.93;;
287;SDS011;128;48.770;9.198;2023-06-04T12:10:48;7.27;;;3.50;;
287;SDS011;128;48.770;9.198;2023-06-04T12:13:16;16.33;;;3.60;;
287;SDS011;128;48.770;9.198;2023-06-04T12:15:42;8.30;;;3.30;;
287;SDS011;128;48.770;9.198;2023-06-04T12:18:08;4.37;;;2.80;;
287;SDS011;128;48.770;9.198;2023-06-04T12:20:38;5.77;;;3.33;;
287;SDS011;128;48.770;9.198;2023-06-04T12:23:04;7.87;;;5.20;;
287;SDS011;128;48.770;9.198;2023-06-04T12:25:31;6.27;;;3.40;;
287;SDS011;128;48.770;9.198;2023-06-04T12:27:57;11.63;;;3.63;;
287;SDS011;128;48.770;9.198;2023-06-04T12:30:31;7.93;;;3.27;;
287;SDS011;128;48.770;9.198;2023-06-04T12:33:00;7.10;;;4.10;;
287;SDS011;128;48.770;9.198;2023-06-04T12:35:26;13.53;;;4.60;;
287;SDS011;128;48.770;9.198;2023-06-04T12:37:52;6.17;;;3.43;;
287;SDS011;128;48.770;9.198;2023-06-04T12:40:18;7.27;;;3.80;;
287;SDS011;128;48.770;9.198;2023-06-04T12:42:43;5.50;;;3.00;;
287;SDS011;128;48.770;9.198;2023-06-04T12:45:09;7.03;;;3.50;;
287;SDS011;128;48.770;9.198;2023-06-04T12:47:36;7.80;;;3.67;;
287;SDS011;128;48.770;9.198;2023-06-04T12:50:02;7.73;;;4.03;;
287;SDS011;128;48.770;9.198;2023-06-04T12:52:28;4.83;;;3.23;;
287;SDS011;128;48.770;9.198;2023-06-04T12:54:54;10.33;;;3.70;;
287;SDS011;128;48.770;9.198;2023-06-04T12:57:20;8.73;;;3.50;;
287;SDS011;128;48.770;9.198;2023-06-04T12:59:46;8.83;;;3.67;;
287;SDS011;128;48.770;9.198;2023-06-04T13:02:12;5.53;;;3.00;;
287;SDS011;128;48.770;9.198;2023-06-04T13:04:38;4.97;;;3.03;;
287;SDS011;128;48.770;9.198;2023-06-04T13:07:06;6.93;;;3.67;;
287;SDS011;128;48.770;9.198;2023-06-04T13:09:32;5.40;;;3.50;;
287;SDS011;128;48.770;9.198;2023-06-04T13:11:59;4.77;;;3.37;;
287;SDS011;128;48.770;9.198;2023-06-04T13:14:25;5.63;;;3.87;;
287;SDS011;128;48.770;9.198;2023-06-04T13:16:51;4.50;;;3.00;;
287;SDS011;128;48.770;9.198;2023-06-04T13:19:18;4.70;;;3.50;;
287;SDS011;128;48.770;9.198;2023-06-04T13:21:46;6.90;;;3.60;;
287;SDS011;128;48.770;9.198;2023-06-04T13:24:12;6.27;;;3.30;;
287;SDS011;128;48.770;9.198;2023-06-04T13:26:38;6.43;;;3.43;;
287;SDS011;128;48.770;9.198;2023-06-04T13:29:06;5.40;;;3.27;;
287;SDS011;128;48.770;9.198;2023-06-04T13:31:32;5.23;;;3.10;;
287;SDS011;128;48.770;9.198;2023-06-04T13:33:58;4.57;;;3.03;;
287;SDS011;128;48.770;9.198;2023-06-04T13:36:24;4.97;;;3.10;;
287;SDS011;128;48.770;9.198;2023-06-04T13:38:50;5.37;;;3.50;;
287;SDS011;128;48.770;9.198;2023-06-04T13:41:17;3.67;;;3.37;;
287;SDS011;128;48.770;9.198;2023-06-04T13:43:43;5.00;;;3.40;;
287;SDS011;128;48.770;9.198;2023-06-04T13:46:09;5.33;;;3.30;;
287;SDS011;128;48.770;9.198;2023-06-04T13:48:35;6.37;;;3.53;;
287;SDS011;128;48.770;9.198;2023-06-04T13:51:01;9.17;;;4.27;;
287;SDS011;128;48.770;9.198;2023-06-04T13:53:27;4.90;;;2.73;;
287;SDS011;128;48.770;9.198;2023-06-04T13:55:52;4.07;;;2.70;;
287;SDS011;128;48.770;9.198;2023-06-04T13:58:22;5.83;;;3.97;;
287;SDS011;128;48.770;9.198;2023-06-04T14:00:48;4.43;;;3.00;;
287;SDS011;128;48.770;9.198;2023-06-04T14:03:15;4.57;;;2.93;;
287;SDS011;128;48.770;9.198;2023-06-04T14:05:40;6.10;;;3.80;;
287;SDS011;128;48.770;9.198;2023-06-04T14:08:06;6.00;;;2.90;;
287;SDS011;128;48.770;9.198;2023-06-04T14:10:32;7.87;;;4.30;;
287;SDS011;128;48.770;9.198;2023-06-04T14:12:58;5.80;;;3.70;;
287;SDS011;128;48.770;9.198;2023-06-04T14:15:26;5.67;;;3.80;;
287;SDS011;128;48.770;9.198;2023-06-04T14:17:52;5.87;;;4.00;;
287;SDS011;128;48.770;9.198;2023-06-04T14:20:18;6.40;;;3.50;;
287;SDS011;128;48.770;9.198;2023-06-04T14:22:44;3.90;;;2.83;;
287;SDS011;128;48.770;9.198;2023-06-04T14:25:09;5.40;;;3.20;;
287;SDS011;128;48.770;9.198;2023-06-04T14:27:36;4.50;;;2.60;;
287;SDS011;128;48.770;9.198;2023-06-04T14:30:05;9.13;;;3.30;;
287;SDS011;128;48.770;9.198;2023-06-04T14:32:31;8.30;;;2.83;;
287;SDS011;128;48.770;9.198;2023-06-04T14:34:58;7.77;;;3.40;;
287;SDS011;128;48.770;9.198;2023-06-04T14:37:24;4.40;;;2.60;;
287;SDS011;128;48.770;9.198;2023-06-04T14:39:50;14.03;;;3.43;;
287;SDS011;128;48.770;9.198;2023-06-04T14:42:16;3.87;;;2.73;;
287;SDS011;128;48.770;9.198;2023-06-04T14:44:42;6.50;;;3.50;;
287;SDS011;128;48.770;9.198;2023-06-04T14:47:08;7.97;;;3.90;;
287;SDS011;128;48.770;9.198;2023-06-04T14:49:34;8.00;;;4.23;;
287;SDS011;128;48.770;9.198;2023-06-04T14:52:01;5.60;;;3.67;;
287;SDS011;128;48.770;9.198;2023-06-04T14:54:27;5.23;;;3.50;;
287;SDS011;128;48.770;9.198;2023-06-04T14:56:54;9.17;;;4.00;;
287;SDS011;128;48.770;9.198;2023-06-04T14:59:20;5.00;;;3.60;;
287;SDS011;128;48.770;9.198;2023-06-04T15:01:46;6.30;;;3.80;;
287;SDS011;128;48.770;9.198;2023-06-04T15:04:12;4.87;;;3.27;;
287;SDS011;128;48.770;9.198;2023-06-04T15:06:38;4.43;;;3.00;;
287;SDS011;128;48.770;9.198;2023-06-04T15:09:04;4.20;;;3.00;;
287;SDS011;128;48.770;9.198;2023-06-04T15:11:30;5.80;;;3.30;;
287;SDS011;128;48.770;9.198;2023-06-04T15:13:56;7.23;;;3.37;;
287;SDS011;128;48.770;9.198;2023-06-04T15:16:22;5.57;;;2.90;;
287;SDS011;128;48.770;9.198;2023-06-04T15:18:48;5.43;;;2.90;;
287;SDS011;128;48.770;9.198;2023-06-04T15:21:14;3.87;;;2.80;;
287;SDS011;128;48.770;9.198;2023-06-04T15:23:41;4.73;;;3.63;;
287;SDS011;128;48.770;9.198;2023-06-04T15:26:09;5.30;;;3.60;;
287;SDS011;128;48.770;9.198;2023-06-04T15:28:35;4.80;;;3.50;;
287;SDS011;128;48.770;9.198;2023-06-04T15:31:00;5.10;;;3.33;;
287;SDS011;128;48.770;9.198;2023-06-04T15:33:26;5.37;;;3.17;;
287;SDS011;128;48.770;9.198;2023-06-04T15:35:53;6.10;;;3.60;;
287;SDS011;128;48.770;9.198;2023-06-04T15:38:19;4.80;;;3.37;;
287;SDS011;128;48.770;9.198;2023-06-04T15:40:44;10.00;;;2.90;;
287;SDS011;128;48.770;9.198;2023-06-04T15:43:10;3.40;;;2.80;;
287;SDS011;128;48.770;9.198;2023-06-04T15:45:36;5.30;;;2.77;;
287;SDS011;128;48.770;9.198;2023-06-04T15:48:02;7.03;;;3.10;;
287;SDS011;128;48.770;9.198;2023-06-04T15:50:28;7.07;;;4.37;;
287;SDS011;128;48.770;9.198;2023-06-04T15:52:54;7.17;;;3.43;;